sensor_id;sensor_type;location;lat;lon;timestamp;temperature;humidity
74153;DHT22;62505;46.070;14.492;2022-10-22T00:02:19;22.70;92.10
74153;DHT22;62505;46.070;14.492;2022-10-22T00:04:46;22.70;92.50
74153;DHT22;62505;46.070;14.492;2022-10-22T00:07:13;22.70;92.20
74153;DHT22;62505;46.070;14.492;2022-10-22T00:09:40;22.70;92.40
74153;DHT22;62505;46.070;14.492;2022-10-22T00:12:08;22.70;92.40
74153;DHT22;62505;46.070;14.492;2022-10-22T00:14:35;22.70;92.30
74153;DHT22;62505;46.070;14.492;2022-10-22T00:17:02;22.70;92.20
74153;DHT22;62505;46.070;14.492;2022-10-22T00:19:30;22.70;92.20
74153;DHT22;62505;46.070;14.492;2022-10-22T00:21:56;22.70;92.50
74153;DHT22;62505;46.070;14.492;2022-10-22T00:24:24;22.70;92.50
74153;DHT22;62505;46.070;14.492;2022-10-22T00:26:51;22.70;92.50
74153;DHT22;62505;46.070;14.492;2022-10-22T00:29:19;22.70;92.30
74153;DHT22;62505;46.070;14.492;2022-10-22T00:31:48;22.70;92.30
74153;DHT22;62505;46.070;14.492;2022-10-22T00:34:16;22.60;92.50
74153;DHT22;62505;46.070;14.492;2022-10-22T00:36:44;22.60;92.50
74153;DHT22;62505;46.070;14.492;2022-10-22T00:39:12;22.60;92.50
74153;DHT22;62505;46.070;14.492;2022-10-22T00:41:40;22.60;92.60
74153;DHT22;62505;46.070;14.492;2022-10-22T00:46:50;22.60;92.60
74153;DHT22;62505;46.070;14.492;2022-10-22T00:49:17;22.60;92.60
74153;DHT22;62505;46.070;14.492;2022-10-22T00:51:44;22.60;92.50
74153;DHT22;62505;46.070;14.492;2022-10-22T00:54:11;22.60;92.40
74153;DHT22;62505;46.070;14.492;2022-10-22T00:56:38;22.60;92.60
74153;DHT22;62505;46.070;14.492;2022-10-22T00:59:05;22.60;92.50
74153;DHT22;62505;46.070;14.492;2022-10-22T01:01:33;22.60;92.50
74153;DHT22;62505;46.070;14.492;2022-10-22T01:04:01;22.60;92.60
74153;DHT22;62505;46.070;14.492;2022-10-22T01:06:30;22.60;92.50
74153;DHT22;62505;46.070;14.492;2022-10-22T01:09:08;22.60;92.60
74153;DHT22;62505;46.070;14.492;2022-10-22T01:11:45;22.60;92.60
74153;DHT22;62505;46.070;14.492;2022-10-22T01:14:18;22.60;92.60
74153;DHT22;62505;46.070;14.492;2022-10-22T01:16:53;22.60;92.40
74153;DHT22;62505;46.070;14.492;2022-10-22T01:19:42;22.60;92.50
74153;DHT22;62505;46.070;14.492;2022-10-22T01:22:19;22.60;92.50
74153;DHT22;62505;46.070;14.492;2022-10-22T01:24:55;22.60;92.50
74153;DHT22;62505;46.070;14.492;2022-10-22T01:27:39;22.60;92.40
74153;DHT22;62505;46.070;14.492;2022-10-22T01:30:13;22.60;92.50
74153;DHT22;62505;46.070;14.492;2022-10-22T01:32:43;22.60;92.30
74153;DHT22;62505;46.070;14.492;2022-10-22T01:35:14;22.50;92.60
74153;DHT22;62505;46.070;14.492;2022-10-22T01:37:46;22.60;92.50
74153;DHT22;62505;46.070;14.492;2022-10-22T01:40:15;22.50;92.40
74153;DHT22;62505;46.070;14.492;2022-10-22T01:42:56;22.50;92.50
74153;DHT22;62505;46.070;14.492;2022-10-22T01:45:25;22.50;92.40
74153;DHT22;62505;46.070;14.492;2022-10-22T01:47:57;22.50;92.50
74153;DHT22;62505;46.070;14.492;2022-10-22T01:50:59;22.50;92.50
74153;DHT22;62505;46.070;14.492;2022-10-22T01:53:34;22.50;92.50
74153;DHT22;62505;46.070;14.492;2022-10-22T01:56:23;22.50;92.60
74153;DHT22;62505;46.070;14.492;2022-10-22T01:59:00;22.60;92.50
74153;DHT22;62505;46.070;14.492;2022-10-22T02:01:37;22.50;92.60
74153;DHT22;62505;46.070;14.492;2022-10-22T02:04:12;22.50;92.60
74153;DHT22;62505;46.070;14.492;2022-10-22T02:06:42;22.50;92.50
74153;DHT22;62505;46.070;14.492;2022-10-22T02:09:13;22.50;92.50
74153;DHT22;62505;46.070;14.492;2022-10-22T02:11:41;22.50;92.50
74153;DHT22;62505;46.070;14.492;2022-10-22T02:14:10;22.50;92.40
74153;DHT22;62505;46.070;14.492;2022-10-22T02:16:42;22.50;92.50
74153;DHT22;62505;46.070;14.492;2022-10-22T02:19:12;22.50;92.70
74153;DHT22;62505;46.070;14.492;2022-10-22T02:21:41;22.50;92.50
74153;DHT22;62505;46.070;14.492;2022-10-22T02:24:08;22.50;92.60
74153;DHT22;62505;46.070;14.492;2022-10-22T02:26:39;22.50;92.60
74153;DHT22;62505;46.070;14.492;2022-10-22T02:29:12;22.50;92.50
74153;DHT22;62505;46.070;14.492;2022-10-22T02:31:43;22.50;92.50
74153;DHT22;62505;46.070;14.492;2022-10-22T02:34:14;22.40;92.50
74153;DHT22;62505;46.070;14.492;2022-10-22T02:36:43;22.50;92.50
74153;DHT22;62505;46.070;14.492;2022-10-22T02:39:12;22.50;92.60
74153;DHT22;62505;46.070;14.492;2022-10-22T02:41:41;22.40;92.50
74153;DHT22;62505;46.070;14.492;2022-10-22T02:44:09;22.40;92.50
74153;DHT22;62505;46.070;14.492;2022-10-22T02:46:37;22.50;92.50
74153;DHT22;62505;46.070;14.492;2022-10-22T02:49:06;22.40;92.40
74153;DHT22;62505;46.070;14.492;2022-10-22T02:51:33;22.50;92.40
74153;DHT22;62505;46.070;14.492;2022-10-22T02:54:00;22.50;92.40
74153;DHT22;62505;46.070;14.492;2022-10-22T02:56:27;22.40;92.50
74153;DHT22;62505;46.070;14.492;2022-10-22T02:58:55;22.40;92.40
74153;DHT22;62505;46.070;14.492;2022-10-22T03:01:22;22.40;92.40
74153;DHT22;62505;46.070;14.492;2022-10-22T03:03:49;22.40;92.40
74153;DHT22;62505;46.070;14.492;2022-10-22T03:06:17;22.40;92.30
74153;DHT22;62505;46.070;14.492;2022-10-22T03:08:45;22.40;92.40
74153;DHT22;62505;46.070;14.492;2022-10-22T03:11:11;22.40;92.40
74153;DHT22;62505;46.070;14.492;2022-10-22T03:13:38;22.40;92.50
74153;DHT22;62505;46.070;14.492;2022-10-22T03:16:05;22.40;92.40
74153;DHT22;62505;46.070;14.492;2022-10-22T03:18:33;22.40;92.50
74153;DHT22;62505;46.070;14.492;2022-10-22T03:21:03;22.40;92.40
74153;DHT22;62505;46.070;14.492;2022-10-22T03:23:33;22.40;92.40
74153;DHT22;62505;46.070;14.492;2022-10-22T03:26:01;22.40;92.40
74153;DHT22;62505;46.070;14.492;2022-10-22T03:28:28;22.40;92.40
74153;DHT22;62505;46.070;14.492;2022-10-22T03:30:55;22.40;92.40
74153;DHT22;62505;46.070;14.492;2022-10-22T03:33:22;22.40;92.40
74153;DHT22;62505;46.070;14.492;2022-10-22T03:35:49;22.40;92.40
74153;DHT22;62505;46.070;14.492;2022-10-22T03:38:16;22.40;92.40
74153;DHT22;62505;46.070;14.492;2022-10-22T03:40:45;22.40;92.40
74153;DHT22;62505;46.070;14.492;2022-10-22T03:43:12;22.40;92.30
74153;DHT22;62505;46.070;14.492;2022-10-22T03:45:39;22.40;92.40
74153;DHT22;62505;46.070;14.492;2022-10-22T03:48:06;22.40;92.40
74153;DHT22;62505;46.070;14.492;2022-10-22T03:50:32;22.40;92.40
74153;DHT22;62505;46.070;14.492;2022-10-22T03:53:00;22.40;92.40
74153;DHT22;62505;46.070;14.492;2022-10-22T03:55:27;22.40;92.40
74153;DHT22;62505;46.070;14.492;2022-10-22T03:57:55;22.40;92.40
74153;DHT22;62505;46.070;14.492;2022-10-22T04:00:22;22.40;92.40
74153;DHT22;62505;46.070;14.492;2022-10-22T04:02:49;22.40;92.40
74153;DHT22;62505;46.070;14.492;2022-10-22T04:05:16;22.40;92.40
74153;DHT22;62505;46.070;14.492;2022-10-22T04:07:42;22.40;92.40
74153;DHT22;62505;46.070;14.492;2022-10-22T04:10:09;22.40;92.30
74153;DHT22;62505;46.070;14.492;2022-10-22T04:12:36;22.40;92.40
74153;DHT22;62505;46.070;14.492;2022-10-22T04:15:06;22.40;92.30
74153;DHT22;62505;46.070;14.492;2022-10-22T04:17:34;22.40;92.40
74153;DHT22;62505;46.070;14.492;2022-10-22T04:20:02;22.40;92.40
74153;DHT22;62505;46.070;14.492;2022-10-22T04:22:32;22.40;92.30
74153;DHT22;62505;46.070;14.492;2022-10-22T04:24:59;22.40;92.30
74153;DHT22;62505;46.070;14.492;2022-10-22T04:27:29;22.40;92.40
74153;DHT22;62505;46.070;14.492;2022-10-22T04:29:56;22.40;92.30
74153;DHT22;62505;46.070;14.492;2022-10-22T04:32:24;22.40;92.40
74153;DHT22;62505;46.070;14.492;2022-10-22T04:34:51;22.40;92.40
74153;DHT22;62505;46.070;14.492;2022-10-22T04:37:18;22.40;92.30
74153;DHT22;62505;46.070;14.492;2022-10-22T04:39:45;22.40;92.30
74153;DHT22;62505;46.070;14.492;2022-10-22T04:42:11;22.40;92.30
74153;DHT22;62505;46.070;14.492;2022-10-22T04:44:38;22.40;92.40
74153;DHT22;62505;46.070;14.492;2022-10-22T04:47:05;22.40;92.30
74153;DHT22;62505;46.070;14.492;2022-10-22T04:49:33;22.40;92.40
74153;DHT22;62505;46.070;14.492;2022-10-22T04:52:00;22.30;92.30
74153;DHT22;62505;46.070;14.492;2022-10-22T04:54:27;22.40;92.30
74153;DHT22;62505;46.070;14.492;2022-10-22T04:56:54;22.40;92.30
74153;DHT22;62505;46.070;14.492;2022-10-22T04:59:21;22.30;92.30
74153;DHT22;62505;46.070;14.492;2022-10-22T05:01:48;22.30;92.30
74153;DHT22;62505;46.070;14.492;2022-10-22T05:04:16;22.40;92.30
74153;DHT22;62505;46.070;14.492;2022-10-22T05:06:45;22.30;92.30
74153;DHT22;62505;46.070;14.492;2022-10-22T05:09:14;22.30;92.30
74153;DHT22;62505;46.070;14.492;2022-10-22T05:11:43;22.30;92.40
74153;DHT22;62505;46.070;14.492;2022-10-22T05:14:13;22.30;92.30
74153;DHT22;62505;46.070;14.492;2022-10-22T05:16:41;22.40;92.30
74153;DHT22;62505;46.070;14.492;2022-10-22T05:19:15;22.30;92.30
74153;DHT22;62505;46.070;14.492;2022-10-22T05:21:42;22.30;92.30
74153;DHT22;62505;46.070;14.492;2022-10-22T05:24:11;22.30;92.40
74153;DHT22;62505;46.070;14.492;2022-10-22T05:26:39;22.30;92.30
74153;DHT22;62505;46.070;14.492;2022-10-22T05:29:06;22.30;92.30
74153;DHT22;62505;46.070;14.492;2022-10-22T05:31:33;22.30;92.20
74153;DHT22;62505;46.070;14.492;2022-10-22T05:34:00;22.30;92.30
74153;DHT22;62505;46.070;14.492;2022-10-22T05:36:27;22.30;92.30
74153;DHT22;62505;46.070;14.492;2022-10-22T05:38:55;22.30;92.30
74153;DHT22;62505;46.070;14.492;2022-10-22T05:41:25;22.30;92.30
74153;DHT22;62505;46.070;14.492;2022-10-22T05:43:54;22.30;92.30
74153;DHT22;62505;46.070;14.492;2022-10-22T05:46:22;22.30;92.20
74153;DHT22;62505;46.070;14.492;2022-10-22T05:48:50;22.30;92.20
74153;DHT22;62505;46.070;14.492;2022-10-22T05:51:17;22.30;92.30
74153;DHT22;62505;46.070;14.492;2022-10-22T05:53:45;22.40;92.20
74153;DHT22;62505;46.070;14.492;2022-10-22T05:56:13;22.30;92.30
74153;DHT22;62505;46.070;14.492;2022-10-22T05:58:43;22.30;92.30
74153;DHT22;62505;46.070;14.492;2022-10-22T06:01:12;22.30;92.30
74153;DHT22;62505;46.070;14.492;2022-10-22T06:03:39;22.30;92.30
74153;DHT22;62505;46.070;14.492;2022-10-22T06:06:14;22.30;92.20
74153;DHT22;62505;46.070;14.492;2022-10-22T06:08:43;22.30;92.30
74153;DHT22;62505;46.070;14.492;2022-10-22T06:11:10;22.40;92.30
74153;DHT22;62505;46.070;14.492;2022-10-22T06:13:44;22.30;92.30
74153;DHT22;62505;46.070;14.492;2022-10-22T06:16:12;22.30;92.30
74153;DHT22;62505;46.070;14.492;2022-10-22T06:18:39;22.30;92.20
74153;DHT22;62505;46.070;14.492;2022-10-22T06:21:07;22.30;92.30
74153;DHT22;62505;46.070;14.492;2022-10-22T06:23:35;22.30;92.30
74153;DHT22;62505;46.070;14.492;2022-10-22T06:26:03;22.30;92.30
74153;DHT22;62505;46.070;14.492;2022-10-22T06:28:30;22.30;92.70
74153;DHT22;62505;46.070;14.492;2022-10-22T06:31:00;22.40;92.60
74153;DHT22;62505;46.070;14.492;2022-10-22T06:33:28;22.40;93.30
74153;DHT22;62505;46.070;14.492;2022-10-22T06:36:02;22.40;93.10
74153;DHT22;62505;46.070;14.492;2022-10-22T06:38:29;22.40;92.80
74153;DHT22;62505;46.070;14.492;2022-10-22T06:41:02;22.40;92.90
74153;DHT22;62505;46.070;14.492;2022-10-22T06:43:29;22.50;93.20
74153;DHT22;62505;46.070;14.492;2022-10-22T06:45:59;22.50;93.10
74153;DHT22;62505;46.070;14.492;2022-10-22T06:48:26;22.60;93.00
74153;DHT22;62505;46.070;14.492;2022-10-22T06:50:53;22.50;92.90
74153;DHT22;62505;46.070;14.492;2022-10-22T06:53:20;22.50;92.70
74153;DHT22;62505;46.070;14.492;2022-10-22T06:55:47;22.50;92.60
74153;DHT22;62505;46.070;14.492;2022-10-22T06:58:14;22.50;92.70
74153;DHT22;62505;46.070;14.492;2022-10-22T07:00:41;22.40;92.70
74153;DHT22;62505;46.070;14.492;2022-10-22T07:03:11;22.40;92.70
74153;DHT22;62505;46.070;14.492;2022-10-22T07:05:38;22.40;92.70
74153;DHT22;62505;46.070;14.492;2022-10-22T07:08:05;22.40;92.90
74153;DHT22;62505;46.070;14.492;2022-10-22T07:10:32;22.40;92.70
74153;DHT22;62505;46.070;14.492;2022-10-22T07:12:59;22.50;92.80
74153;DHT22;62505;46.070;14.492;2022-10-22T07:15:26;22.40;92.70
74153;DHT22;62505;46.070;14.492;2022-10-22T07:17:53;22.40;92.60
74153;DHT22;62505;46.070;14.492;2022-10-22T07:20:21;22.40;92.60
74153;DHT22;62505;46.070;14.492;2022-10-22T07:22:48;22.40;92.60
74153;DHT22;62505;46.070;14.492;2022-10-22T07:25:15;22.40;92.50
74153;DHT22;62505;46.070;14.492;2022-10-22T07:27:42;22.40;93.00
74153;DHT22;62505;46.070;14.492;2022-10-22T07:30:09;22.40;92.90
74153;DHT22;62505;46.070;14.492;2022-10-22T07:32:37;22.50;93.00
74153;DHT22;62505;46.070;14.492;2022-10-22T07:35:07;22.50;93.10
74153;DHT22;62505;46.070;14.492;2022-10-22T07:37:36;22.50;92.90
74153;DHT22;62505;46.070;14.492;2022-10-22T07:40:03;22.50;93.00
74153;DHT22;62505;46.070;14.492;2022-10-22T07:42:30;22.50;93.00
74153;DHT22;62505;46.070;14.492;2022-10-22T07:44:57;22.50;93.10
74153;DHT22;62505;46.070;14.492;2022-10-22T07:47:24;22.50;93.10
74153;DHT22;62505;46.070;14.492;2022-10-22T07:49:51;22.50;93.00
74153;DHT22;62505;46.070;14.492;2022-10-22T07:52:18;22.50;93.10
74153;DHT22;62505;46.070;14.492;2022-10-22T07:54:46;22.50;93.10
74153;DHT22;62505;46.070;14.492;2022-10-22T07:57:13;22.60;93.10
74153;DHT22;62505;46.070;14.492;2022-10-22T07:59:40;22.50;93.00
74153;DHT22;62505;46.070;14.492;2022-10-22T08:02:08;22.50;93.40
74153;DHT22;62505;46.070;14.492;2022-10-22T08:04:35;22.50;93.20
74153;DHT22;62505;46.070;14.492;2022-10-22T08:07:02;22.60;93.30
74153;DHT22;62505;46.070;14.492;2022-10-22T08:09:29;22.60;93.20
74153;DHT22;62505;46.070;14.492;2022-10-22T08:11:57;22.60;93.10
74153;DHT22;62505;46.070;14.492;2022-10-22T08:14:24;22.60;93.10
74153;DHT22;62505;46.070;14.492;2022-10-22T08:16:51;22.60;93.20
74153;DHT22;62505;46.070;14.492;2022-10-22T08:19:18;22.60;93.30
74153;DHT22;62505;46.070;14.492;2022-10-22T08:21:46;22.60;93.20
74153;DHT22;62505;46.070;14.492;2022-10-22T08:24:13;22.60;93.00
74153;DHT22;62505;46.070;14.492;2022-10-22T08:26:40;22.60;92.90
74153;DHT22;62505;46.070;14.492;2022-10-22T08:29:11;22.60;92.70
74153;DHT22;62505;46.070;14.492;2022-10-22T08:31:38;22.60;92.60
74153;DHT22;62505;46.070;14.492;2022-10-22T08:34:05;22.70;92.40
74153;DHT22;62505;46.070;14.492;2022-10-22T08:36:33;22.70;92.30
74153;DHT22;62505;46.070;14.492;2022-10-22T08:39:00;22.70;92.20
74153;DHT22;62505;46.070;14.492;2022-10-22T08:41:27;22.70;92.10
74153;DHT22;62505;46.070;14.492;2022-10-22T08:44:20;22.70;92.00
74153;DHT22;62505;46.070;14.492;2022-10-22T08:47:02;22.80;91.90
74153;DHT22;62505;46.070;14.492;2022-10-22T08:49:34;22.80;91.80
74153;DHT22;62505;46.070;14.492;2022-10-22T08:52:03;22.80;91.70
74153;DHT22;62505;46.070;14.492;2022-10-22T08:54:35;22.80;91.60
74153;DHT22;62505;46.070;14.492;2022-10-22T08:57:36;22.80;91.60
74153;DHT22;62505;46.070;14.492;2022-10-22T09:00:29;22.80;91.80
74153;DHT22;62505;46.070;14.492;2022-10-22T09:03:06;22.80;92.00
74153;DHT22;62505;46.070;14.492;2022-10-22T09:05:46;22.80;92.30
74153;DHT22;62505;46.070;14.492;2022-10-22T09:08:16;22.80;92.30
74153;DHT22;62505;46.070;14.492;2022-10-22T09:10:46;22.70;92.40
74153;DHT22;62505;46.070;14.492;2022-10-22T09:13:17;22.80;92.90
74153;DHT22;62505;46.070;14.492;2022-10-22T09:15:48;22.70;92.50
74153;DHT22;62505;46.070;14.492;2022-10-22T09:18:27;22.70;92.60
74153;DHT22;62505;46.070;14.492;2022-10-22T09:20:58;22.70;92.60
74153;DHT22;62505;46.070;14.492;2022-10-22T09:23:32;22.80;92.80
74153;DHT22;62505;46.070;14.492;2022-10-22T09:26:07;22.70;92.60
74153;DHT22;62505;46.070;14.492;2022-10-22T09:28:37;22.70;92.50
74153;DHT22;62505;46.070;14.492;2022-10-22T09:31:10;22.70;92.50
74153;DHT22;62505;46.070;14.492;2022-10-22T09:33:38;22.70;92.50
74153;DHT22;62505;46.070;14.492;2022-10-22T09:36:06;22.70;92.50
74153;DHT22;62505;46.070;14.492;2022-10-22T09:38:38;22.70;92.60
74153;DHT22;62505;46.070;14.492;2022-10-22T09:41:07;22.70;92.90
74153;DHT22;62505;46.070;14.492;2022-10-22T09:43:34;22.60;92.50
74153;DHT22;62505;46.070;14.492;2022-10-22T09:46:03;22.60;92.50
74153;DHT22;62505;46.070;14.492;2022-10-22T09:48:34;22.60;92.60
74153;DHT22;62505;46.070;14.492;2022-10-22T09:51:05;22.60;92.60
74153;DHT22;62505;46.070;14.492;2022-10-22T09:53:36;22.60;92.60
74153;DHT22;62505;46.070;14.492;2022-10-22T09:56:08;22.60;92.60
74153;DHT22;62505;46.070;14.492;2022-10-22T09:58:41;22.60;92.60
74153;DHT22;62505;46.070;14.492;2022-10-22T10:01:16;22.60;92.60
74153;DHT22;62505;46.070;14.492;2022-10-22T10:03:44;22.60;92.60
74153;DHT22;62505;46.070;14.492;2022-10-22T10:06:17;22.60;92.80
74153;DHT22;62505;46.070;14.492;2022-10-22T10:08:44;22.50;92.70
74153;DHT22;62505;46.070;14.492;2022-10-22T10:11:16;22.50;92.60
74153;DHT22;62505;46.070;14.492;2022-10-22T10:13:51;22.50;92.80
74153;DHT22;62505;46.070;14.492;2022-10-22T10:16:32;22.50;92.60
74153;DHT22;62505;46.070;14.492;2022-10-22T10:19:20;22.50;92.90
74153;DHT22;62505;46.070;14.492;2022-10-22T10:22:00;22.50;92.70
74153;DHT22;62505;46.070;14.492;2022-10-22T10:24:48;22.50;92.70
74153;DHT22;62505;46.070;14.492;2022-10-22T10:27:24;22.50;92.70
74153;DHT22;62505;46.070;14.492;2022-10-22T10:29:59;22.50;92.70
74153;DHT22;62505;46.070;14.492;2022-10-22T10:32:43;22.50;92.70
74153;DHT22;62505;46.070;14.492;2022-10-22T10:35:21;22.50;92.70
74153;DHT22;62505;46.070;14.492;2022-10-22T10:38:04;22.50;92.90
74153;DHT22;62505;46.070;14.492;2022-10-22T10:40:41;22.50;92.80
74153;DHT22;62505;46.070;14.492;2022-10-22T10:43:14;22.50;92.80
74153;DHT22;62505;46.070;14.492;2022-10-22T10:45:48;22.40;92.80
74153;DHT22;62505;46.070;14.492;2022-10-22T10:48:29;22.40;93.00
74153;DHT22;62505;46.070;14.492;2022-10-22T10:51:07;22.40;92.90
74153;DHT22;62505;46.070;14.492;2022-10-22T10:54:04;22.40;92.80
74153;DHT22;62505;46.070;14.492;2022-10-22T10:56:38;22.40;92.80
74153;DHT22;62505;46.070;14.492;2022-10-22T10:59:17;22.40;93.00
74153;DHT22;62505;46.070;14.492;2022-10-22T11:02:12;22.40;92.90
74153;DHT22;62505;46.070;14.492;2022-10-22T11:04:49;22.40;92.80
74153;DHT22;62505;46.070;14.492;2022-10-22T11:07:25;22.40;92.90
74153;DHT22;62505;46.070;14.492;2022-10-22T11:09:56;22.40;92.80
74153;DHT22;62505;46.070;14.492;2022-10-22T11:12:27;22.40;92.80
74153;DHT22;62505;46.070;14.492;2022-10-22T11:14:59;22.40;92.70
74153;DHT22;62505;46.070;14.492;2022-10-22T11:17:32;22.40;92.80
74153;DHT22;62505;46.070;14.492;2022-10-22T11:20:06;22.40;92.90
74153;DHT22;62505;46.070;14.492;2022-10-22T11:22:43;22.40;92.70
74153;DHT22;62505;46.070;14.492;2022-10-22T11:25:15;22.40;92.80
74153;DHT22;62505;46.070;14.492;2022-10-22T11:27:47;22.40;92.80
74153;DHT22;62505;46.070;14.492;2022-10-22T11:30:18;22.40;92.80
74153;DHT22;62505;46.070;14.492;2022-10-22T11:32:48;22.40;92.70
74153;DHT22;62505;46.070;14.492;2022-10-22T11:35:21;22.40;92.70
74153;DHT22;62505;46.070;14.492;2022-10-22T11:37:50;22.40;92.80
74153;DHT22;62505;46.070;14.492;2022-10-22T11:40:21;22.40;92.70
74153;DHT22;62505;46.070;14.492;2022-10-22T11:42:57;22.40;92.80
74153;DHT22;62505;46.070;14.492;2022-10-22T11:45:29;22.40;92.70
74153;DHT22;62505;46.070;14.492;2022-10-22T11:48:07;22.40;92.70
74153;DHT22;62505;46.070;14.492;2022-10-22T11:50:46;22.30;92.60
74153;DHT22;62505;46.070;14.492;2022-10-22T11:53:25;22.40;92.70
74153;DHT22;62505;46.070;14.492;2022-10-22T11:55:56;22.40;92.80
74153;DHT22;62505;46.070;14.492;2022-10-22T11:58:33;22.40;92.70
74153;DHT22;62505;46.070;14.492;2022-10-22T12:01:20;22.30;92.60
74153;DHT22;62505;46.070;14.492;2022-10-22T12:03:49;22.30;92.60
74153;DHT22;62505;46.070;14.492;2022-10-22T12:06:22;22.30;92.60
74153;DHT22;62505;46.070;14.492;2022-10-22T12:09:00;22.30;92.80
74153;DHT22;62505;46.070;14.492;2022-10-22T12:11:36;22.30;92.60
74153;DHT22;62505;46.070;14.492;2022-10-22T12:14:17;22.30;92.80
74153;DHT22;62505;46.070;14.492;2022-10-22T12:16:53;22.30;92.70
74153;DHT22;62505;46.070;14.492;2022-10-22T12:19:26;22.30;92.80
74153;DHT22;62505;46.070;14.492;2022-10-22T12:21:57;22.30;92.60
74153;DHT22;62505;46.070;14.492;2022-10-22T12:24:31;22.30;92.70
74153;DHT22;62505;46.070;14.492;2022-10-22T12:26:59;22.30;92.50
74153;DHT22;62505;46.070;14.492;2022-10-22T12:29:26;22.30;92.60
74153;DHT22;62505;46.070;14.492;2022-10-22T12:31:53;22.30;92.60
74153;DHT22;62505;46.070;14.492;2022-10-22T12:34:23;22.30;92.50
74153;DHT22;62505;46.070;14.492;2022-10-22T12:36:51;22.30;92.60
74153;DHT22;62505;46.070;14.492;2022-10-22T12:39:20;22.30;92.50
74153;DHT22;62505;46.070;14.492;2022-10-22T12:41:48;22.30;92.50
74153;DHT22;62505;46.070;14.492;2022-10-22T12:44:18;22.30;92.60
74153;DHT22;62505;46.070;14.492;2022-10-22T12:46:46;22.30;92.60
74153;DHT22;62505;46.070;14.492;2022-10-22T12:49:16;22.30;92.50
74153;DHT22;62505;46.070;14.492;2022-10-22T12:51:45;22.30;92.50
74153;DHT22;62505;46.070;14.492;2022-10-22T12:54:23;22.30;92.60
74153;DHT22;62505;46.070;14.492;2022-10-22T12:56:53;22.30;92.60
74153;DHT22;62505;46.070;14.492;2022-10-22T12:59:22;22.30;92.60
74153;DHT22;62505;46.070;14.492;2022-10-22T13:01:51;22.30;92.50
74153;DHT22;62505;46.070;14.492;2022-10-22T13:04:21;22.30;92.60
74153;DHT22;62505;46.070;14.492;2022-10-22T13:06:50;22.30;92.60
74153;DHT22;62505;46.070;14.492;2022-10-22T13:09:19;22.30;92.70
74153;DHT22;62505;46.070;14.492;2022-10-22T13:11:54;22.30;92.60
74153;DHT22;62505;46.070;14.492;2022-10-22T13:14:27;22.30;92.70
74153;DHT22;62505;46.070;14.492;2022-10-22T13:17:09;22.30;92.70
74153;DHT22;62505;46.070;14.492;2022-10-22T13:19:40;22.30;92.80
74153;DHT22;62505;46.070;14.492;2022-10-22T13:22:29;22.30;92.80
74153;DHT22;62505;46.070;14.492;2022-10-22T13:24:58;22.30;92.80
74153;DHT22;62505;46.070;14.492;2022-10-22T13:27:27;22.30;92.90
74153;DHT22;62505;46.070;14.492;2022-10-22T13:29:55;22.30;92.70
74153;DHT22;62505;46.070;14.492;2022-10-22T13:32:27;22.30;92.80
74153;DHT22;62505;46.070;14.492;2022-10-22T13:34:56;22.30;92.80
74153;DHT22;62505;46.070;14.492;2022-10-22T13:37:24;22.30;92.90
74153;DHT22;62505;46.070;14.492;2022-10-22T13:39:51;22.30;92.80
74153;DHT22;62505;46.070;14.492;2022-10-22T13:42:18;22.30;92.80
74153;DHT22;62505;46.070;14.492;2022-10-22T13:44:46;22.30;92.80
74153;DHT22;62505;46.070;14.492;2022-10-22T13:47:24;22.30;92.80
74153;DHT22;62505;46.070;14.492;2022-10-22T13:49:53;22.30;92.60
74153;DHT22;62505;46.070;14.492;2022-10-22T13:52:30;22.30;92.70
74153;DHT22;62505;46.070;14.492;2022-10-22T13:54:59;22.30;92.80
74153;DHT22;62505;46.070;14.492;2022-10-22T13:57:26;22.30;92.70
74153;DHT22;62505;46.070;14.492;2022-10-22T13:59:55;22.30;92.70
74153;DHT22;62505;46.070;14.492;2022-10-22T14:02:22;22.30;92.70
74153;DHT22;62505;46.070;14.492;2022-10-22T14:04:49;22.30;92.70
74153;DHT22;62505;46.070;14.492;2022-10-22T14:07:17;22.30;92.60
74153;DHT22;62505;46.070;14.492;2022-10-22T14:09:44;22.30;92.70
74153;DHT22;62505;46.070;14.492;2022-10-22T14:12:12;22.30;93.30
74153;DHT22;62505;46.070;14.492;2022-10-22T14:14:40;22.40;93.90
74153;DHT22;62505;46.070;14.492;2022-10-22T14:17:11;22.40;94.40
74153;DHT22;62505;46.070;14.492;2022-10-22T14:19:42;22.40;93.60
74153;DHT22;62505;46.070;14.492;2022-10-22T14:22:13;22.40;94.10
74153;DHT22;62505;46.070;14.492;2022-10-22T14:24:40;22.40;94.40
74153;DHT22;62505;46.070;14.492;2022-10-22T14:27:09;22.30;94.70
74153;DHT22;62505;46.070;14.492;2022-10-22T14:29:36;22.30;95.20
74153;DHT22;62505;46.070;14.492;2022-10-22T14:32:08;22.30;95.60
74153;DHT22;62505;46.070;14.492;2022-10-22T14:34:37;22.30;95.60
74153;DHT22;62505;46.070;14.492;2022-10-22T14:37:07;22.30;96.00
74153;DHT22;62505;46.070;14.492;2022-10-22T14:39:38;22.30;96.20
74153;DHT22;62505;46.070;14.492;2022-10-22T14:42:08;22.30;96.30
74153;DHT22;62505;46.070;14.492;2022-10-22T14:44:35;22.30;96.90
74153;DHT22;62505;46.070;14.492;2022-10-22T14:47:02;22.30;96.80
74153;DHT22;62505;46.070;14.492;2022-10-22T14:49:28;22.30;96.90
74153;DHT22;62505;46.070;14.492;2022-10-22T14:51:57;22.30;97.30
74153;DHT22;62505;46.070;14.492;2022-10-22T14:54:24;22.30;97.50
74153;DHT22;62505;46.070;14.492;2022-10-22T14:56:51;22.30;97.70
74153;DHT22;62505;46.070;14.492;2022-10-22T14:59:20;22.30;97.70
74153;DHT22;62505;46.070;14.492;2022-10-22T15:01:48;22.30;97.90
74153;DHT22;62505;46.070;14.492;2022-10-22T15:04:15;22.30;98.00
74153;DHT22;62505;46.070;14.492;2022-10-22T15:06:41;22.30;98.20
74153;DHT22;62505;46.070;14.492;2022-10-22T15:09:10;22.30;98.50
74153;DHT22;62505;46.070;14.492;2022-10-22T15:11:37;22.30;98.60
74153;DHT22;62505;46.070;14.492;2022-10-22T15:14:04;22.30;98.60
74153;DHT22;62505;46.070;14.492;2022-10-22T15:16:30;22.30;98.70
74153;DHT22;62505;46.070;14.492;2022-10-22T15:18:57;22.30;98.90
74153;DHT22;62505;46.070;14.492;2022-10-22T15:21:25;22.30;99.10
74153;DHT22;62505;46.070;14.492;2022-10-22T15:23:52;22.30;99.30
74153;DHT22;62505;46.070;14.492;2022-10-22T15:26:21;22.30;99.30
74153;DHT22;62505;46.070;14.492;2022-10-22T15:28:48;22.30;99.60
74153;DHT22;62505;46.070;14.492;2022-10-22T15:31:15;22.30;99.30
74153;DHT22;62505;46.070;14.492;2022-10-22T15:33:42;22.30;99.40
74153;DHT22;62505;46.070;14.492;2022-10-22T15:36:11;22.30;99.30
74153;DHT22;62505;46.070;14.492;2022-10-22T15:38:39;22.30;99.30